createdAt,value
2023-04-17T00:01:24.287Z,5.94
2023-04-17T00:03:52.550Z,5.96
2023-04-17T00:06:19.261Z,5.92
2023-04-17T00:08:46.150Z,5.89
2023-04-17T00:11:12.663Z,5.91
2023-04-17T00:13:39.144Z,5.82
2023-04-17T00:16:06.038Z,5.85
2023-04-17T00:18:32.452Z,5.85
2023-04-17T00:20:58.894Z,5.85
2023-04-17T00:23:26.070Z,5.82
2023-04-17T00:25:52.458Z,5.77
2023-04-17T00:28:19.355Z,5.76
2023-04-17T00:30:45.846Z,5.76
2023-04-17T00:33:12.336Z,5.72
2023-04-17T00:35:38.883Z,5.72
2023-04-17T00:38:05.367Z,5.72
2023-04-17T00:40:31.833Z,5.72
2023-04-17T00:43:02.657Z,5.69
2023-04-17T00:45:30.320Z,5.70
2023-04-17T00:47:59.405Z,5.68
2023-04-17T00:50:29.580Z,5.69
2023-04-17T00:52:57.205Z,5.65
2023-04-17T00:55:24.023Z,5.68
2023-04-17T00:57:50.853Z,5.67
2023-04-17T01:00:18.224Z,5.68
2023-04-17T01:02:45.899Z,5.68
2023-04-17T01:05:12.779Z,5.66
2023-04-17T01:07:40.175Z,5.66
2023-04-17T01:10:07.664Z,5.61
2023-04-17T01:12:34.117Z,5.62
2023-04-17T01:15:00.801Z,5.59
2023-04-17T01:17:27.718Z,5.60
2023-04-17T01:19:55.512Z,5.63
2023-04-17T01:22:21.969Z,5.63
2023-04-17T01:24:49.280Z,5.59
2023-04-17T01:27:15.752Z,5.62
2023-04-17T01:29:43.161Z,5.59
2023-04-17T01:32:10.267Z,5.62
2023-04-17T01:34:37.713Z,5.64
2023-04-17T01:37:04.444Z,5.64
2023-04-17T01:39:31.014Z,5.59
2023-04-17T01:41:57.454Z,5.60
2023-04-17T01:44:23.925Z,5.61
2023-04-17T01:46:51.398Z,5.62
2023-04-17T01:49:17.878Z,5.57
2023-04-17T01:51:44.368Z,5.57
2023-04-17T01:54:10.970Z,5.56
2023-04-17T01:56:37.492Z,5.55
2023-04-17T01:59:03.920Z,5.52
2023-04-17T02:01:31.099Z,5.51
2023-04-17T02:03:57.799Z,5.49
2023-04-17T02:06:24.881Z,5.48
2023-04-17T02:08:51.335Z,5.54
2023-04-17T02:11:18.331Z,5.52
2023-04-17T02:13:44.795Z,5.55
2023-04-17T02:16:12.541Z,5.55
2023-04-17T02:18:40.771Z,5.58
2023-04-17T02:21:07.327Z,5.56
2023-04-17T02:23:33.779Z,5.54
2023-04-17T02:26:00.306Z,5.60
2023-04-17T02:28:26.886Z,5.58
2023-04-17T02:30:53.418Z,5.58
2023-04-17T02:33:19.849Z,5.56
2023-04-17T02:35:46.553Z,5.58
2023-04-17T02:38:13.180Z,5.58
2023-04-17T02:40:39.669Z,5.58
2023-04-17T02:43:06.103Z,5.54
2023-04-17T02:45:32.525Z,5.58
2023-04-17T02:47:58.990Z,5.60
2023-04-17T02:50:25.655Z,5.58
2023-04-17T02:52:52.142Z,5.58
2023-04-17T02:55:18.768Z,5.56
2023-04-17T02:57:46.163Z,5.56
2023-04-17T03:00:14.514Z,5.57
2023-04-17T03:02:41.561Z,5.59
2023-04-17T03:05:09.204Z,5.58
2023-04-17T03:07:35.790Z,5.57
2023-04-17T03:10:03.384Z,5.57
2023-04-17T03:12:29.972Z,5.57
2023-04-17T03:14:56.422Z,5.60
2023-04-17T03:17:22.957Z,5.58
2023-04-17T03:19:49.379Z,5.58
2023-04-17T03:22:15.834Z,5.60
2023-04-17T03:24:42.331Z,5.62
2023-04-17T03:27:09.103Z,5.58
2023-04-17T03:29:35.683Z,5.60
2023-04-17T03:32:02.371Z,5.55
2023-04-17T03:34:29.498Z,5.54
2023-04-17T03:36:55.948Z,5.53
2023-04-17T03:39:22.481Z,5.53
2023-04-17T03:41:48.970Z,5.53
2023-04-17T03:44:17.247Z,5.56
2023-04-17T03:46:43.698Z,5.56
2023-04-17T03:49:10.601Z,5.56
2023-04-17T03:51:37.263Z,5.58
2023-04-17T03:54:03.784Z,5.57
2023-04-17T03:56:30.556Z,5.56
2023-04-17T03:58:57.016Z,5.61
2023-04-17T04:01:23.566Z,5.57
2023-04-17T04:03:50.123Z,5.59
2023-04-17T04:06:20.188Z,5.61
2023-04-17T04:08:46.775Z,5.61
2023-04-17T04:11:13.850Z,5.58
2023-04-17T04:13:40.596Z,5.61
2023-04-17T04:16:07.466Z,5.60
2023-04-17T04:18:34.662Z,5.60
2023-04-17T04:21:01.149Z,5.58
2023-04-17T04:23:28.148Z,5.61
2023-04-17T04:25:56.845Z,5.62
2023-04-17T04:28:24.169Z,5.61
2023-04-17T04:30:51.463Z,5.57
2023-04-17T04:33:20.268Z,5.60
2023-04-17T04:35:51.292Z,5.62
2023-04-17T04:38:17.906Z,5.61
2023-04-17T04:40:49.850Z,5.63
2023-04-17T04:43:16.397Z,5.58
2023-04-17T04:45:42.818Z,5.61
2023-04-17T04:48:09.313Z,5.61
2023-04-17T04:50:35.924Z,5.62
2023-04-17T04:53:02.351Z,5.60
2023-04-17T04:55:30.696Z,5.62
2023-04-17T04:57:57.568Z,5.63
2023-04-17T05:00:24.796Z,5.64
2023-04-17T05:02:51.424Z,5.64
2023-04-17T05:05:18.157Z,5.67
2023-04-17T05:07:44.580Z,5.72
2023-04-17T05:10:11.108Z,5.63
2023-04-17T05:12:37.831Z,5.65
2023-04-17T05:15:04.759Z,5.69
2023-04-17T05:17:31.412Z,5.74
2023-04-17T05:19:57.884Z,5.75
2023-04-17T05:22:24.420Z,5.73
2023-04-17T05:24:50.891Z,5.74
2023-04-17T05:27:17.330Z,5.75
2023-04-17T05:29:43.755Z,5.70
2023-04-17T05:32:10.481Z,5.73
2023-04-17T05:34:36.956Z,5.74
2023-04-17T05:37:03.446Z,5.73
2023-04-17T05:39:30.055Z,5.70
2023-04-17T05:41:56.479Z,5.75
2023-04-17T05:44:22.982Z,5.75
2023-04-17T05:46:49.393Z,5.80
2023-04-17T05:49:15.946Z,5.80
2023-04-17T05:51:42.482Z,5.77
2023-04-17T05:54:08.910Z,5.80
2023-04-17T05:56:35.584Z,5.84
2023-04-17T05:59:02.122Z,5.79
2023-04-17T06:01:30.062Z,5.86
2023-04-17T06:03:57.168Z,5.92
2023-04-17T06:06:24.080Z,5.89
2023-04-17T06:08:52.356Z,5.91
2023-04-17T06:11:19.927Z,5.92
2023-04-17T06:13:46.859Z,5.94
2023-04-17T06:16:13.710Z,5.94
2023-04-17T06:18:41.469Z,6.03
2023-04-17T06:21:08.036Z,5.96
2023-04-17T06:23:34.469Z,5.99
2023-04-17T06:26:01.240Z,6.03
2023-04-17T06:28:27.674Z,5.93
2023-04-17T06:30:54.115Z,5.88
2023-04-17T06:33:21.066Z,6.03
2023-04-17T06:35:47.495Z,5.97
2023-04-17T06:38:13.961Z,6.00
2023-04-17T06:40:40.500Z,6.08
2023-04-17T06:43:07.060Z,6.08
2023-04-17T06:45:34.257Z,6.10
2023-04-17T06:48:00.795Z,6.12
2023-04-17T06:50:28.613Z,6.15
2023-04-17T06:52:55.003Z,6.23
2023-04-17T06:55:21.445Z,6.26
2023-04-17T06:57:47.846Z,6.19
2023-04-17T07:00:14.810Z,6.19
2023-04-17T07:02:41.446Z,6.25
2023-04-17T07:05:08.602Z,6.15
2023-04-17T07:07:35.987Z,6.22
2023-04-17T07:10:03.733Z,6.22
2023-04-17T07:12:30.404Z,6.20
2023-04-17T07:14:56.888Z,6.09
2023-04-17T07:17:23.366Z,6.10
2023-04-17T07:19:49.964Z,5.97
2023-04-17T07:22:16.383Z,5.85
2023-04-17T07:24:42.923Z,5.88
2023-04-17T07:27:09.498Z,5.86
2023-04-17T07:29:36.182Z,5.83
2023-04-17T07:32:03.839Z,5.89
2023-04-17T07:34:31.712Z,5.79
2023-04-17T07:36:58.161Z,5.86
2023-04-17T07:39:26.843Z,5.89
2023-04-17T07:41:54.255Z,5.95
2023-04-17T07:44:20.650Z,6.05
2023-04-17T07:46:47.163Z,6.20
2023-04-17T07:49:13.967Z,6.21
2023-04-17T07:51:42.141Z,6.20
2023-04-17T07:54:08.661Z,6.17
2023-04-17T07:56:36.547Z,6.20
2023-04-17T07:59:03.571Z,6.04
2023-04-17T08:01:30.081Z,5.96
2023-04-17T08:03:58.253Z,6.09
2023-04-17T08:06:25.096Z,6.08
2023-04-17T08:08:52.103Z,6.11
2023-04-17T08:11:18.597Z,6.23
2023-04-17T08:13:45.148Z,6.25
2023-04-17T08:16:11.642Z,6.26
2023-04-17T08:18:39.277Z,6.32
2023-04-17T08:21:05.945Z,6.23
2023-04-17T08:23:32.464Z,6.09
2023-04-17T08:25:58.923Z,6.05
2023-04-17T08:28:25.543Z,6.00
2023-04-17T08:30:52.485Z,6.10
2023-04-17T08:33:19.065Z,6.15
2023-04-17T08:35:45.970Z,6.10
2023-04-17T08:38:14.552Z,6.14
2023-04-17T08:40:42.969Z,6.10
2023-04-17T08:43:19.492Z,6.04
2023-04-17T08:45:55.113Z,5.92
2023-04-17T08:48:23.188Z,5.83
2023-04-17T08:50:51.015Z,5.96
2023-04-17T08:53:18.713Z,5.97
2023-04-17T08:55:46.442Z,6.11
2023-04-17T08:58:13.420Z,6.14
2023-04-17T09:00:42.474Z,6.24
2023-04-17T09:03:13.304Z,6.31
2023-04-17T09:05:43.113Z,6.29
2023-04-17T09:08:11.371Z,6.32
2023-04-17T09:10:40.285Z,6.47
2023-04-17T09:13:08.462Z,6.43
2023-04-17T09:15:36.351Z,6.38
2023-04-17T09:18:03.921Z,6.48
2023-04-17T09:20:30.603Z,6.42
2023-04-17T09:23:02.479Z,6.34
2023-04-17T09:25:30.028Z,6.30
2023-04-17T09:28:14.603Z,6.25
2023-04-17T09:30:42.288Z,6.21
2023-04-17T09:33:10.493Z,6.12
2023-04-17T09:35:40.704Z,6.10
2023-04-17T09:38:07.644Z,6.07
2023-04-17T09:40:41.998Z,6.12
2023-04-17T09:43:10.432Z,6.15
2023-04-17T09:45:41.830Z,6.24
2023-04-17T09:48:10.923Z,6.34
2023-04-17T09:50:38.863Z,6.48
2023-04-17T09:53:07.358Z,6.54
2023-04-17T09:55:36.388Z,6.68
2023-04-17T09:58:05.401Z,6.62
2023-04-17T10:00:32.101Z,6.70
2023-04-17T10:03:00.179Z,6.68
2023-04-17T10:05:29.166Z,6.72
2023-04-17T10:07:56.747Z,6.84
2023-04-17T10:10:25.876Z,6.84
2023-04-17T10:12:56.075Z,6.89
2023-04-17T10:15:25.509Z,6.91
2023-04-17T10:17:52.941Z,6.84
2023-04-17T10:20:20.049Z,6.77
2023-04-17T10:22:56.992Z,6.74
2023-04-17T10:25:25.189Z,6.61
2023-04-17T10:28:02.225Z,6.59
2023-04-17T10:30:49.649Z,6.65
2023-04-17T10:33:16.708Z,6.56
2023-04-17T10:35:43.160Z,6.51
2023-04-17T10:38:11.409Z,6.44
2023-04-17T10:40:39.351Z,6.67
2023-04-17T10:43:19.901Z,6.73
2023-04-17T10:46:06.363Z,6.98
2023-04-17T10:48:38.369Z,7.29
2023-04-17T10:51:23.682Z,7.21
2023-04-17T10:54:00.189Z,7.47
2023-04-17T10:56:35.077Z,7.51
2023-04-17T10:59:03.595Z,7.55
2023-04-17T11:01:39.915Z,7.36
2023-04-17T11:04:07.641Z,7.03
2023-04-17T11:06:39.861Z,6.96
2023-04-17T11:09:11.061Z,6.93
2023-04-17T11:11:44.676Z,6.75
2023-04-17T11:14:15.015Z,6.65
2023-04-17T11:16:43.329Z,6.56
2023-04-17T11:19:11.779Z,6.57
2023-04-17T11:21:52.315Z,7.09
2023-04-17T11:24:30.529Z,7.51
2023-04-17T11:26:59.866Z,7.53
2023-04-17T11:29:27.573Z,7.44
2023-04-17T11:31:56.343Z,7.63
2023-04-17T11:34:24.997Z,7.63
2023-04-17T11:36:53.502Z,7.80
2023-04-17T11:39:21.158Z,7.76
2023-04-17T11:41:47.793Z,7.93
2023-04-17T11:44:15.367Z,7.94
2023-04-17T11:46:42.025Z,7.90
2023-04-17T11:49:10.004Z,7.95
2023-04-17T11:51:36.661Z,8.13
2023-04-17T11:54:03.124Z,8.07
2023-04-17T11:56:30.131Z,8.09
2023-04-17T11:58:58.427Z,8.22
2023-04-17T12:01:26.644Z,8.41
2023-04-17T12:03:55.031Z,8.59
2023-04-17T12:06:22.369Z,8.89
2023-04-17T12:08:51.200Z,9.11
2023-04-17T12:11:27.397Z,9.62
2023-04-17T12:13:55.276Z,9.79
2023-04-17T12:16:24.929Z,9.70
2023-04-17T12:18:51.893Z,9.90
2023-04-17T12:21:21.953Z,9.65
2023-04-17T12:23:48.472Z,9.81
2023-04-17T12:26:15.258Z,10.27
2023-04-17T12:28:42.396Z,10.91
2023-04-17T12:31:09.151Z,11.27
2023-04-17T12:33:35.853Z,11.20
2023-04-17T12:36:04.068Z,11.08
2023-04-17T12:38:31.398Z,10.35
2023-04-17T12:40:58.212Z,10.11
2023-04-17T12:43:24.741Z,10.00
2023-04-17T12:45:52.913Z,9.63
2023-04-17T12:48:19.620Z,9.61
2023-04-17T12:50:46.284Z,9.83
2023-04-17T12:53:14.780Z,10.22
2023-04-17T12:55:43.903Z,10.67
2023-04-17T12:58:12.607Z,11.04
2023-04-17T13:00:40.895Z,11.05
2023-04-17T13:03:07.716Z,10.65
2023-04-17T13:05:34.596Z,10.01
2023-04-17T13:08:01.069Z,9.43
2023-04-17T13:10:27.871Z,9.24
2023-04-17T13:12:54.309Z,9.06
2023-04-17T13:15:20.905Z,9.02
2023-04-17T13:17:47.603Z,9.06
2023-04-17T13:20:14.138Z,9.03
2023-04-17T13:22:40.637Z,9.05
2023-04-17T13:25:07.416Z,9.16
2023-04-17T13:27:33.891Z,9.22
2023-04-17T13:30:00.400Z,9.37
2023-04-17T13:32:26.987Z,9.34
2023-04-17T13:34:53.812Z,9.44
2023-04-17T13:37:20.473Z,9.46
2023-04-17T13:39:47.119Z,9.34
2023-04-17T13:42:15.894Z,9.24
2023-04-17T13:44:42.473Z,9.26
2023-04-17T13:47:09.139Z,9.24
2023-04-17T13:49:35.800Z,9.29
2023-04-17T13:52:03.345Z,9.45
2023-04-17T13:54:29.937Z,9.49
2023-04-17T13:56:56.966Z,9.54
2023-04-17T13:59:23.462Z,9.54
2023-04-17T14:01:49.977Z,9.66
2023-04-17T14:04:16.949Z,9.74
2023-04-17T14:06:49.563Z,9.88
2023-04-17T14:09:17.089Z,9.98
2023-04-17T14:11:43.564Z,10.06
2023-04-17T14:14:12.540Z,10.05
2023-04-17T14:16:40.882Z,10.06
2023-04-17T14:19:14.217Z,10.23
2023-04-17T14:21:41.720Z,9.87
2023-04-17T14:24:08.494Z,10.18
2023-04-17T14:26:35.709Z,10.13
2023-04-17T14:29:02.151Z,10.33
2023-04-17T14:31:28.648Z,10.16
2023-04-17T14:33:55.226Z,10.38
2023-04-17T14:36:21.666Z,10.65
2023-04-17T14:38:51.069Z,10.85
2023-04-17T14:41:18.087Z,10.60
2023-04-17T14:43:44.835Z,10.25
2023-04-17T14:46:11.553Z,10.34
2023-04-17T14:48:48.060Z,10.40
2023-04-17T14:51:22.291Z,10.21
2023-04-17T14:53:49.312Z,10.15
2023-04-17T14:56:16.080Z,10.08
2023-04-17T14:58:43.397Z,10.07
2023-04-17T15:01:10.290Z,10.00
2023-04-17T15:03:37.176Z,9.68
2023-04-17T15:06:04.072Z,9.57
2023-04-17T15:08:31.210Z,9.34
2023-04-17T15:10:58.785Z,9.17
2023-04-17T15:13:25.448Z,9.05
2023-04-17T15:15:51.936Z,8.95
2023-04-17T15:18:18.444Z,8.78
2023-04-17T15:20:46.152Z,8.84
2023-04-17T15:23:12.776Z,8.81
2023-04-17T15:25:39.547Z,8.80
2023-04-17T15:28:08.295Z,8.86
2023-04-17T15:30:34.761Z,8.84
2023-04-17T15:33:01.410Z,8.83
2023-04-17T15:35:27.990Z,8.81
2023-04-17T15:37:54.491Z,8.82
2023-04-17T15:40:20.957Z,8.75
2023-04-17T15:42:47.450Z,8.77
2023-04-17T15:45:14.698Z,8.78
2023-04-17T15:47:41.155Z,8.75
2023-04-17T15:50:08.180Z,8.74
2023-04-17T15:52:34.823Z,8.78
2023-04-17T15:55:01.249Z,8.76
2023-04-17T15:57:27.685Z,8.80
2023-04-17T15:59:54.141Z,8.81
2023-04-17T16:02:21.233Z,8.80
2023-04-17T16:04:47.873Z,8.85
2023-04-17T16:07:15.596Z,8.86
2023-04-17T16:09:44.263Z,8.93
2023-04-17T16:12:10.851Z,8.95
2023-04-17T16:14:37.815Z,9.02
2023-04-17T16:17:04.895Z,9.07
2023-04-17T16:19:32.134Z,9.08
2023-04-17T16:21:58.751Z,9.12
2023-04-17T16:24:26.171Z,9.16
2023-04-17T16:26:54.131Z,9.13
2023-04-17T16:29:21.309Z,9.09
2023-04-17T16:31:47.797Z,9.11
2023-04-17T16:34:14.455Z,9.12
2023-04-17T16:36:45.414Z,9.12
2023-04-17T16:39:12.609Z,9.12
2023-04-17T16:41:39.223Z,9.10
2023-04-17T16:44:05.804Z,9.13
2023-04-17T16:46:48.355Z,9.15
2023-04-17T16:49:18.830Z,9.12
2023-04-17T16:51:45.355Z,9.09
2023-04-17T16:54:12.229Z,9.01
2023-04-17T16:56:39.010Z,9.03
2023-04-17T16:59:05.579Z,9.00
2023-04-17T17:01:32.701Z,9.03
2023-04-17T17:03:59.476Z,9.02
2023-04-17T17:06:26.192Z,9.02
2023-04-17T17:08:55.013Z,8.98
2023-04-17T17:11:22.005Z,8.94
2023-04-17T17:13:49.872Z,8.94
2023-04-17T17:16:17.670Z,8.89
2023-04-17T17:18:44.711Z,8.86
2023-04-17T17:21:11.451Z,8.83
2023-04-17T17:23:38.211Z,8.83
2023-04-17T17:26:05.484Z,8.67
2023-04-17T17:28:32.302Z,8.69
2023-04-17T17:31:03.844Z,8.74
2023-04-17T17:33:32.064Z,8.68
2023-04-17T17:35:58.909Z,8.69
2023-04-17T17:38:28.481Z,8.65
2023-04-17T17:40:56.142Z,8.59
2023-04-17T17:43:22.979Z,8.56
2023-04-17T17:45:49.870Z,8.53
2023-04-17T17:48:18.037Z,8.54
2023-04-17T17:50:44.710Z,8.54
2023-04-17T17:53:11.439Z,8.49
2023-04-17T17:55:38.302Z,8.45
2023-04-17T17:58:06.549Z,8.42
2023-04-17T18:00:33.406Z,8.40
2023-04-17T18:03:00.500Z,8.39
2023-04-17T18:05:27.381Z,8.33
2023-04-17T18:07:53.916Z,8.28
2023-04-17T18:10:20.394Z,8.32
2023-04-17T18:12:46.896Z,8.31
2023-04-17T18:15:13.318Z,8.29
2023-04-17T18:17:39.903Z,8.29
2023-04-17T18:20:07.002Z,8.27
2023-04-17T18:22:33.526Z,8.23
2023-04-17T18:24:59.990Z,8.20
2023-04-17T18:27:27.110Z,8.23
2023-04-17T18:29:53.556Z,8.15
2023-04-17T18:32:20.097Z,8.17
2023-04-17T18:34:49.187Z,8.10
2023-04-17T18:37:17.484Z,8.10
2023-04-17T18:39:44.829Z,8.12
2023-04-17T18:42:11.395Z,8.13
2023-04-17T18:44:37.960Z,8.10
2023-04-17T18:47:04.725Z,8.06
2023-04-17T18:49:31.360Z,7.92
2023-04-17T18:51:57.845Z,7.86
2023-04-17T18:54:24.418Z,7.77
2023-04-17T18:56:50.922Z,7.64
2023-04-17T18:59:19.795Z,7.58
2023-04-17T19:01:46.346Z,7.53
2023-04-17T19:04:13.213Z,7.40
2023-04-17T19:06:39.935Z,7.29
2023-04-17T19:09:06.407Z,7.18
2023-04-17T19:11:33.503Z,7.22
2023-04-17T19:14:00.515Z,7.16
2023-04-17T19:16:27.054Z,7.11
2023-04-17T19:18:53.568Z,7.05
2023-04-17T19:21:20.148Z,7.07
2023-04-17T19:23:47.474Z,7.00
2023-04-17T19:26:15.763Z,6.91
2023-04-17T19:28:42.397Z,6.87
2023-04-17T19:31:08.997Z,6.82
2023-04-17T19:33:35.697Z,6.79
2023-04-17T19:36:03.399Z,6.89
2023-04-17T19:38:31.262Z,6.87
2023-04-17T19:41:17.338Z,6.91
2023-04-17T19:43:45.281Z,6.91
2023-04-17T19:46:13.317Z,6.91
2023-04-17T19:48:41.498Z,6.89
2023-04-17T19:51:08.095Z,6.86
2023-04-17T19:53:35.621Z,6.92
2023-04-17T19:56:03.217Z,6.94
2023-04-17T19:58:30.030Z,6.98
2023-04-17T20:00:58.377Z,6.97
2023-04-17T20:03:29.065Z,6.99
2023-04-17T20:05:57.391Z,6.98
2023-04-17T20:08:24.924Z,6.96
2023-04-17T20:10:51.488Z,6.98
2023-04-17T20:13:17.993Z,6.99
2023-04-17T20:15:44.459Z,7.02
2023-04-17T20:18:12.430Z,7.00
2023-04-17T20:20:39.178Z,6.98
2023-04-17T20:23:06.116Z,6.96
2023-04-17T20:25:32.620Z,6.93
2023-04-17T20:27:59.099Z,6.88
2023-04-17T20:30:25.615Z,6.89
2023-04-17T20:32:52.225Z,6.84
2023-04-17T20:35:23.534Z,6.84
2023-04-17T20:37:51.614Z,6.86
2023-04-17T20:40:18.590Z,6.86
2023-04-17T20:42:45.834Z,6.89
2023-04-17T20:45:12.507Z,6.86
2023-04-17T20:47:49.201Z,6.82
2023-04-17T20:50:22.628Z,6.77
2023-04-17T20:52:49.078Z,6.71
2023-04-17T20:55:18.238Z,6.68
2023-04-17T20:57:44.989Z,6.65
2023-04-17T21:00:12.236Z,6.72
2023-04-17T21:02:38.935Z,6.72
2023-04-17T21:05:07.383Z,6.69
2023-04-17T21:07:34.103Z,6.75
2023-04-17T21:10:02.197Z,6.69
2023-04-17T21:12:28.673Z,6.60
2023-04-17T21:14:55.268Z,6.53
2023-04-17T21:17:22.746Z,6.50
2023-04-17T21:19:49.429Z,6.45
2023-04-17T21:22:15.937Z,6.37
2023-04-17T21:24:42.422Z,6.39
2023-04-17T21:27:08.947Z,6.39
2023-04-17T21:29:35.398Z,6.33
2023-04-17T21:32:01.930Z,6.20
2023-04-17T21:34:28.426Z,6.14
2023-04-17T21:36:54.880Z,6.02
2023-04-17T21:39:21.902Z,5.91
2023-04-17T21:41:48.379Z,5.86
2023-04-17T21:44:15.407Z,5.75
2023-04-17T21:46:45.105Z,5.74
2023-04-17T21:49:11.803Z,5.67
2023-04-17T21:51:38.306Z,5.59
2023-04-17T21:54:04.825Z,5.52
2023-04-17T21:56:31.627Z,5.48
2023-04-17T21:58:58.179Z,5.42
2023-04-17T22:01:24.792Z,5.41
2023-04-17T22:03:51.328Z,5.39
2023-04-17T22:06:17.934Z,5.40
2023-04-17T22:08:44.589Z,5.40
2023-04-17T22:11:11.178Z,5.35
2023-04-17T22:13:37.636Z,5.40
2023-04-17T22:16:04.304Z,5.41
2023-04-17T22:18:30.792Z,5.36
2023-04-17T22:20:57.263Z,5.25
2023-04-17T22:23:23.794Z,5.16
2023-04-17T22:25:51.452Z,5.12
2023-04-17T22:28:17.957Z,5.05
2023-04-17T22:30:44.398Z,5.03
2023-04-17T22:33:10.907Z,5.00
2023-04-17T22:35:37.374Z,4.98
2023-04-17T22:38:04.028Z,5.12
2023-04-17T22:40:30.481Z,5.07
2023-04-17T22:42:56.920Z,5.02
2023-04-17T22:45:23.339Z,4.95
2023-04-17T22:47:49.840Z,4.93
2023-04-17T22:50:17.710Z,5.02
2023-04-17T22:52:44.351Z,4.95
2023-04-17T22:55:11.123Z,5.00
2023-04-17T22:57:37.579Z,4.91
2023-04-17T23:00:04.390Z,4.86
2023-04-17T23:02:30.971Z,4.76
2023-04-17T23:04:57.482Z,4.71
2023-04-17T23:07:24.005Z,4.72
2023-04-17T23:09:50.504Z,4.71
2023-04-17T23:12:16.928Z,4.62
2023-04-17T23:14:45.325Z,4.56
2023-04-17T23:17:12.105Z,4.49
2023-04-17T23:19:38.517Z,4.44
2023-04-17T23:22:05.078Z,4.50
2023-04-17T23:24:34.096Z,4.49
2023-04-17T23:27:01.814Z,4.43
2023-04-17T23:29:28.803Z,4.40
2023-04-17T23:31:55.361Z,4.44
2023-04-17T23:34:21.985Z,4.30
2023-04-17T23:36:48.549Z,4.32
2023-04-17T23:39:15.047Z,4.27
2023-04-17T23:41:42.365Z,4.20
2023-04-17T23:44:09.628Z,4.09
2023-04-17T23:46:36.529Z,4.10
2023-04-17T23:49:03.678Z,4.10
2023-04-17T23:51:31.522Z,4.11
2023-04-17T23:54:00.427Z,4.08
2023-04-17T23:56:29.837Z,4.04
2023-04-17T23:58:56.841Z,4.07
